sensor_id;sensor_type;location;lat;lon;timestamp;P1;durP1;ratioP1;P2;durP2;ratioP2
39078;SDS011;24829;49.208;12.080;2023-06-22T00:00:27;15.05;;;10.73;;
39078;SDS011;24829;49.208;12.080;2023-06-22T00:02:52;15.30;;;11.18;;
39078;SDS011;24829;49.208;12.080;2023-06-22T00:05:18;13.35;;;11.60;;
39078;SDS011;24829;49.208;12.080;2023-06-22T00:07:43;22.10;;;13.43;;
39078;SDS011;24829;49.208;12.080;2023-06-22T00:10:09;13.82;;;11.32;;
39078;SDS011;24829;49.208;12.080;2023-06-22T00:12:35;16.55;;;11.75;;
39078;SDS011;24829;49.208;12.080;2023-06-22T00:15:00;17.25;;;11.50;;
39078;SDS011;24829;49.208;12.080;2023-06-22T00:17:26;16.05;;;11.85;;
39078;SDS011;24829;49.208;12.080;2023-06-22T00:19:51;16.70;;;12.07;;
39078;SDS011;24829;49.208;12.080;2023-06-22T00:22:18;22.33;;;11.60;;
39078;SDS011;24829;49.208;12.080;2023-06-22T00:24:52;17.13;;;11.88;;
39078;SDS011;24829;49.208;12.080;2023-06-22T00:27:19;14.40;;;11.73;;
39078;SDS011;24829;49.208;12.080;2023-06-22T00:29:44;16.80;;;11.60;;
39078;SDS011;24829;49.208;12.080;2023-06-22T00:32:10;14.52;;;10.88;;
39078;SDS011;24829;49.208;12.080;2023-06-22T00:34:35;14.68;;;9.57;;
39078;SDS011;24829;49.208;12.080;2023-06-22T00:37:01;17.52;;;11.43;;
39078;SDS011;24829;49.208;12.080;2023-06-22T00:39:27;15.63;;;11.25;;
39078;SDS011;24829;49.208;12.080;2023-06-22T00:41:52;26.05;;;20.27;;
39078;SDS011;24829;49.208;12.080;2023-06-22T00:44:18;17.08;;;13.77;;
39078;SDS011;24829;49.208;12.080;2023-06-22T00:46:43;16.02;;;11.30;;
39078;SDS011;24829;49.208;12.080;2023-06-22T00:49:09;17.08;;;11.93;;
39078;SDS011;24829;49.208;12.080;2023-06-22T00:51:35;16.33;;;13.35;;
39078;SDS011;24829;49.208;12.080;2023-06-22T00:54:03;15.90;;;12.18;;
39078;SDS011;24829;49.208;12.080;2023-06-22T00:56:30;14.50;;;10.70;;
39078;SDS011;24829;49.208;12.080;2023-06-22T00:58:57;17.42;;;12.10;;
39078;SDS011;24829;49.208;12.080;2023-06-22T01:01:24;13.77;;;11.20;;
39078;SDS011;24829;49.208;12.080;2023-06-22T01:03:50;14.75;;;12.57;;
39078;SDS011;24829;49.208;12.080;2023-06-22T01:06:18;13.38;;;10.13;;
39078;SDS011;24829;49.208;12.080;2023-06-22T01:08:53;14.70;;;11.30;;
39078;SDS011;24829;49.208;12.080;2023-06-22T01:11:32;15.63;;;11.38;;
39078;SDS011;24829;49.208;12.080;2023-06-22T01:14:05;14.35;;;10.20;;
39078;SDS011;24829;49.208;12.080;2023-06-22T01:16:37;15.35;;;11.43;;
39078;SDS011;24829;49.208;12.080;2023-06-22T01:21:39;14.48;;;10.00;;
39078;SDS011;24829;49.208;12.080;2023-06-22T01:24:10;15.75;;;11.73;;
39078;SDS011;24829;49.208;12.080;2023-06-22T01:29:31;16.48;;;11.13;;
39078;SDS011;24829;49.208;12.080;2023-06-22T01:31:59;12.90;;;10.88;;
39078;SDS011;24829;49.208;12.080;2023-06-22T01:34:26;11.63;;;10.45;;
39078;SDS011;24829;49.208;12.080;2023-06-22T01:36:53;16.75;;;10.70;;
39078;SDS011;24829;49.208;12.080;2023-06-22T01:39:19;14.98;;;10.25;;
39078;SDS011;24829;49.208;12.080;2023-06-22T01:41:47;12.05;;;8.85;;
39078;SDS011;24829;49.208;12.080;2023-06-22T01:44:13;14.10;;;10.27;;
39078;SDS011;24829;49.208;12.080;2023-06-22T01:46:39;14.63;;;10.70;;
39078;SDS011;24829;49.208;12.080;2023-06-22T01:49:05;11.68;;;9.68;;
39078;SDS011;24829;49.208;12.080;2023-06-22T01:51:31;15.27;;;11.02;;
39078;SDS011;24829;49.208;12.080;2023-06-22T01:53:57;16.35;;;12.57;;
39078;SDS011;24829;49.208;12.080;2023-06-22T01:56:22;15.32;;;11.75;;
39078;SDS011;24829;49.208;12.080;2023-06-22T01:58:50;14.63;;;11.23;;
39078;SDS011;24829;49.208;12.080;2023-06-22T02:01:20;15.50;;;11.20;;
39078;SDS011;24829;49.208;12.080;2023-06-22T02:06:51;15.10;;;11.50;;
39078;SDS011;24829;49.208;12.080;2023-06-22T02:09:22;16.73;;;12.05;;
39078;SDS011;24829;49.208;12.080;2023-06-22T02:11:50;16.38;;;11.95;;
39078;SDS011;24829;49.208;12.080;2023-06-22T02:14:20;14.65;;;11.90;;
39078;SDS011;24829;49.208;12.080;2023-06-22T02:16:47;17.65;;;10.95;;
39078;SDS011;24829;49.208;12.080;2023-06-22T02:19:13;16.25;;;12.70;;
39078;SDS011;24829;49.208;12.080;2023-06-22T02:21:43;14.07;;;11.63;;
39078;SDS011;24829;49.208;12.080;2023-06-22T02:24:12;17.35;;;11.48;;
39078;SDS011;24829;49.208;12.080;2023-06-22T02:26:38;19.02;;;14.07;;
39078;SDS011;24829;49.208;12.080;2023-06-22T02:29:07;18.33;;;13.45;;
39078;SDS011;24829;49.208;12.080;2023-06-22T02:31:33;16.70;;;12.45;;
39078;SDS011;24829;49.208;12.080;2023-06-22T02:33:58;16.25;;;12.75;;
39078;SDS011;24829;49.208;12.080;2023-06-22T02:36:25;17.90;;;14.32;;
39078;SDS011;24829;49.208;12.080;2023-06-22T02:38:51;23.95;;;13.23;;
39078;SDS011;24829;49.208;12.080;2023-06-22T02:41:17;23.33;;;14.65;;
39078;SDS011;24829;49.208;12.080;2023-06-22T02:43:44;18.02;;;14.00;;
39078;SDS011;24829;49.208;12.080;2023-06-22T02:46:10;19.13;;;15.13;;
39078;SDS011;24829;49.208;12.080;2023-06-22T02:48:37;22.58;;;14.38;;
39078;SDS011;24829;49.208;12.080;2023-06-22T02:51:03;18.80;;;14.30;;
39078;SDS011;24829;49.208;12.080;2023-06-22T02:53:29;15.77;;;12.80;;
39078;SDS011;24829;49.208;12.080;2023-06-22T02:55:55;78.70;;;19.90;;
39078;SDS011;24829;49.208;12.080;2023-06-22T02:58:21;61.63;;;19.35;;
39078;SDS011;24829;49.208;12.080;2023-06-22T03:00:46;26.48;;;17.15;;
39078;SDS011;24829;49.208;12.080;2023-06-22T03:03:12;21.17;;;15.25;;
39078;SDS011;24829;49.208;12.080;2023-06-22T03:05:37;50.90;;;16.77;;
39078;SDS011;24829;49.208;12.080;2023-06-22T03:08:05;60.22;;;18.05;;
39078;SDS011;24829;49.208;12.080;2023-06-22T03:10:30;33.17;;;16.77;;
39078;SDS011;24829;49.208;12.080;2023-06-22T03:12:56;43.20;;;16.55;;
39078;SDS011;24829;49.208;12.080;2023-06-22T03:15:21;29.92;;;15.43;;
39078;SDS011;24829;49.208;12.080;2023-06-22T03:17:47;65.18;;;14.38;;
39078;SDS011;24829;49.208;12.080;2023-06-22T03:20:12;63.15;;;15.07;;
39078;SDS011;24829;49.208;12.080;2023-06-22T03:22:38;42.80;;;15.05;;
39078;SDS011;24829;49.208;12.080;2023-06-22T03:25:05;53.63;;;14.82;;
39078;SDS011;24829;49.208;12.080;2023-06-22T03:27:38;39.92;;;15.18;;
39078;SDS011;24829;49.208;12.080;2023-06-22T03:30:05;35.83;;;15.32;;
39078;SDS011;24829;49.208;12.080;2023-06-22T03:32:32;29.50;;;14.02;;
39078;SDS011;24829;49.208;12.080;2023-06-22T03:34:57;90.03;;;15.68;;
39078;SDS011;24829;49.208;12.080;2023-06-22T03:37:24;90.95;;;14.85;;
39078;SDS011;24829;49.208;12.080;2023-06-22T03:39:50;117.97;;;16.30;;
39078;SDS011;24829;49.208;12.080;2023-06-22T03:42:16;95.93;;;16.70;;
39078;SDS011;24829;49.208;12.080;2023-06-22T03:44:42;127.38;;;17.27;;
39078;SDS011;24829;49.208;12.080;2023-06-22T03:47:07;42.58;;;15.95;;
39078;SDS011;24829;49.208;12.080;2023-06-22T03:49:33;22.65;;;15.85;;
39078;SDS011;24829;49.208;12.080;2023-06-22T03:52:00;18.48;;;13.57;;
39078;SDS011;24829;49.208;12.080;2023-06-22T03:54:28;17.55;;;13.18;;
39078;SDS011;24829;49.208;12.080;2023-06-22T03:56:54;20.42;;;13.45;;
39078;SDS011;24829;49.208;12.080;2023-06-22T03:59:21;38.63;;;14.88;;
39078;SDS011;24829;49.208;12.080;2023-06-22T04:01:47;23.80;;;14.50;;
39078;SDS011;24829;49.208;12.080;2023-06-22T04:04:12;57.67;;;16.63;;
39078;SDS011;24829;49.208;12.080;2023-06-22T04:06:38;39.00;;;16.10;;
39078;SDS011;24829;49.208;12.080;2023-06-22T04:09:05;40.95;;;16.10;;
39078;SDS011;24829;49.208;12.080;2023-06-22T04:11:31;49.35;;;18.08;;
39078;SDS011;24829;49.208;12.080;2023-06-22T04:13:57;102.75;;;19.17;;
39078;SDS011;24829;49.208;12.080;2023-06-22T04:16:22;55.45;;;17.58;;
39078;SDS011;24829;49.208;12.080;2023-06-22T04:18:48;21.00;;;17.20;;
39078;SDS011;24829;49.208;12.080;2023-06-22T04:21:13;90.82;;;17.88;;
39078;SDS011;24829;49.208;12.080;2023-06-22T04:23:39;89.72;;;16.63;;
39078;SDS011;24829;49.208;12.080;2023-06-22T04:26:04;121.53;;;18.58;;
39078;SDS011;24829;49.208;12.080;2023-06-22T04:28:30;36.00;;;14.23;;
39078;SDS011;24829;49.208;12.080;2023-06-22T04:30:59;81.80;;;17.35;;
39078;SDS011;24829;49.208;12.080;2023-06-22T04:33:28;74.15;;;16.83;;
39078;SDS011;24829;49.208;12.080;2023-06-22T04:35:54;71.22;;;15.50;;
39078;SDS011;24829;49.208;12.080;2023-06-22T04:38:23;33.47;;;14.23;;
39078;SDS011;24829;49.208;12.080;2023-06-22T04:40:50;158.63;;;18.08;;
39078;SDS011;24829;49.208;12.080;2023-06-22T04:43:16;51.13;;;14.15;;
39078;SDS011;24829;49.208;12.080;2023-06-22T04:45:41;113.95;;;17.33;;
39078;SDS011;24829;49.208;12.080;2023-06-22T04:48:07;23.48;;;14.95;;
39078;SDS011;24829;49.208;12.080;2023-06-22T04:50:41;27.23;;;12.95;;
39078;SDS011;24829;49.208;12.080;2023-06-22T04:53:07;25.35;;;13.93;;
39078;SDS011;24829;49.208;12.080;2023-06-22T04:55:34;25.20;;;13.80;;
39078;SDS011;24829;49.208;12.080;2023-06-22T04:58:02;29.75;;;14.65;;
39078;SDS011;24829;49.208;12.080;2023-06-22T05:00:29;29.67;;;14.10;;
39078;SDS011;24829;49.208;12.080;2023-06-22T05:02:56;36.60;;;15.27;;
39078;SDS011;24829;49.208;12.080;2023-06-22T05:05:22;16.77;;;12.32;;
39078;SDS011;24829;49.208;12.080;2023-06-22T05:07:49;28.15;;;14.25;;
39078;SDS011;24829;49.208;12.080;2023-06-22T05:10:17;15.45;;;12.40;;
39078;SDS011;24829;49.208;12.080;2023-06-22T05:12:44;16.98;;;13.75;;
39078;SDS011;24829;49.208;12.080;2023-06-22T05:15:11;21.98;;;15.65;;
39078;SDS011;24829;49.208;12.080;2023-06-22T05:17:37;17.45;;;15.20;;
39078;SDS011;24829;49.208;12.080;2023-06-22T05:20:07;19.50;;;15.55;;
39078;SDS011;24829;49.208;12.080;2023-06-22T05:22:34;22.13;;;16.63;;
39078;SDS011;24829;49.208;12.080;2023-06-22T05:25:00;26.30;;;15.70;;
39078;SDS011;24829;49.208;12.080;2023-06-22T05:27:25;26.95;;;16.13;;
39078;SDS011;24829;49.208;12.080;2023-06-22T05:29:51;25.65;;;16.27;;
39078;SDS011;24829;49.208;12.080;2023-06-22T05:32:16;21.83;;;15.70;;
39078;SDS011;24829;49.208;12.080;2023-06-22T05:34:42;19.80;;;15.52;;
39078;SDS011;24829;49.208;12.080;2023-06-22T05:37:08;28.95;;;16.65;;
39078;SDS011;24829;49.208;12.080;2023-06-22T05:39:34;33.75;;;16.95;;
39078;SDS011;24829;49.208;12.080;2023-06-22T05:42:02;19.80;;;16.02;;
39078;SDS011;24829;49.208;12.080;2023-06-22T05:44:30;17.70;;;15.55;;
39078;SDS011;24829;49.208;12.080;2023-06-22T05:46:55;22.17;;;17.20;;
39078;SDS011;24829;49.208;12.080;2023-06-22T05:49:21;18.40;;;14.35;;
39078;SDS011;24829;49.208;12.080;2023-06-22T05:51:47;16.52;;;13.73;;
39078;SDS011;24829;49.208;12.080;2023-06-22T05:54:13;19.30;;;14.77;;
39078;SDS011;24829;49.208;12.080;2023-06-22T05:56:40;17.90;;;14.15;;
39078;SDS011;24829;49.208;12.080;2023-06-22T05:59:06;15.68;;;13.93;;
39078;SDS011;24829;49.208;12.080;2023-06-22T06:01:31;15.35;;;13.35;;
39078;SDS011;24829;49.208;12.080;2023-06-22T06:04:00;14.50;;;12.88;;
39078;SDS011;24829;49.208;12.080;2023-06-22T06:06:26;16.17;;;13.70;;
39078;SDS011;24829;49.208;12.080;2023-06-22T06:08:53;14.10;;;11.35;;
39078;SDS011;24829;49.208;12.080;2023-06-22T06:11:19;13.00;;;11.55;;
39078;SDS011;24829;49.208;12.080;2023-06-22T06:13:44;13.18;;;10.90;;
39078;SDS011;24829;49.208;12.080;2023-06-22T06:16:10;12.02;;;10.82;;
39078;SDS011;24829;49.208;12.080;2023-06-22T06:18:36;12.40;;;11.15;;
39078;SDS011;24829;49.208;12.080;2023-06-22T06:21:02;14.43;;;11.85;;
39078;SDS011;24829;49.208;12.080;2023-06-22T06:23:28;12.77;;;11.48;;
39078;SDS011;24829;49.208;12.080;2023-06-22T06:25:53;14.90;;;12.27;;
39078;SDS011;24829;49.208;12.080;2023-06-22T06:28:19;15.32;;;12.52;;
39078;SDS011;24829;49.208;12.080;2023-06-22T06:30:44;13.07;;;11.75;;
39078;SDS011;24829;49.208;12.080;2023-06-22T06:33:12;13.80;;;11.85;;
39078;SDS011;24829;49.208;12.080;2023-06-22T06:35:37;13.85;;;11.77;;
39078;SDS011;24829;49.208;12.080;2023-06-22T06:38:03;12.15;;;10.90;;
39078;SDS011;24829;49.208;12.080;2023-06-22T06:40:29;12.63;;;10.95;;
39078;SDS011;24829;49.208;12.080;2023-06-22T06:42:54;12.77;;;10.98;;
39078;SDS011;24829;49.208;12.080;2023-06-22T06:45:21;10.57;;;9.35;;
39078;SDS011;24829;49.208;12.080;2023-06-22T06:47:48;10.02;;;8.68;;
39078;SDS011;24829;49.208;12.080;2023-06-22T06:50:14;10.65;;;8.45;;
39078;SDS011;24829;49.208;12.080;2023-06-22T06:52:39;9.05;;;8.15;;
39078;SDS011;24829;49.208;12.080;2023-06-22T06:55:05;10.65;;;7.38;;
39078;SDS011;24829;49.208;12.080;2023-06-22T06:57:33;8.65;;;6.63;;
39078;SDS011;24829;49.208;12.080;2023-06-22T06:59:59;12.05;;;7.18;;
39078;SDS011;24829;49.208;12.080;2023-06-22T07:02:25;7.45;;;6.70;;
39078;SDS011;24829;49.208;12.080;2023-06-22T07:04:52;11.50;;;7.10;;
39078;SDS011;24829;49.208;12.080;2023-06-22T07:07:20;12.18;;;6.28;;
39078;SDS011;24829;49.208;12.080;2023-06-22T07:09:45;7.32;;;6.53;;
39078;SDS011;24829;49.208;12.080;2023-06-22T07:12:11;9.55;;;6.82;;
39078;SDS011;24829;49.208;12.080;2023-06-22T07:14:36;8.35;;;6.85;;
39078;SDS011;24829;49.208;12.080;2023-06-22T07:17:02;10.05;;;6.68;;
39078;SDS011;24829;49.208;12.080;2023-06-22T07:19:28;10.90;;;7.03;;
39078;SDS011;24829;49.208;12.080;2023-06-22T07:21:53;13.55;;;6.07;;
39078;SDS011;24829;49.208;12.080;2023-06-22T07:24:20;12.32;;;6.72;;
39078;SDS011;24829;49.208;12.080;2023-06-22T07:26:49;6.80;;;6.10;;
39078;SDS011;24829;49.208;12.080;2023-06-22T07:29:19;10.35;;;6.25;;
39078;SDS011;24829;49.208;12.080;2023-06-22T07:31:46;9.45;;;6.25;;
39078;SDS011;24829;49.208;12.080;2023-06-22T07:34:12;10.20;;;6.45;;
39078;SDS011;24829;49.208;12.080;2023-06-22T07:36:38;9.50;;;6.60;;
39078;SDS011;24829;49.208;12.080;2023-06-22T07:39:04;11.50;;;6.55;;
39078;SDS011;24829;49.208;12.080;2023-06-22T07:41:29;8.60;;;6.28;;
39078;SDS011;24829;49.208;12.080;2023-06-22T07:43:55;6.50;;;5.82;;
39078;SDS011;24829;49.208;12.080;2023-06-22T07:46:21;9.10;;;5.65;;
39078;SDS011;24829;49.208;12.080;2023-06-22T07:48:47;9.75;;;5.93;;
39078;SDS011;24829;49.208;12.080;2023-06-22T07:51:13;10.55;;;5.95;;
39078;SDS011;24829;49.208;12.080;2023-06-22T07:53:40;7.28;;;5.57;;
39078;SDS011;24829;49.208;12.080;2023-06-22T07:56:06;6.15;;;5.35;;
39078;SDS011;24829;49.208;12.080;2023-06-22T07:58:32;10.40;;;6.20;;
39078;SDS011;24829;49.208;12.080;2023-06-22T08:00:58;10.98;;;5.55;;
39078;SDS011;24829;49.208;12.080;2023-06-22T08:03:24;7.22;;;5.78;;
39078;SDS011;24829;49.208;12.080;2023-06-22T08:05:49;7.03;;;5.45;;
39078;SDS011;24829;49.208;12.080;2023-06-22T08:08:15;11.20;;;5.82;;
39078;SDS011;24829;49.208;12.080;2023-06-22T08:10:41;7.40;;;5.63;;
39078;SDS011;24829;49.208;12.080;2023-06-22T08:13:07;12.23;;;5.85;;
39078;SDS011;24829;49.208;12.080;2023-06-22T08:15:33;8.02;;;5.13;;
39078;SDS011;24829;49.208;12.080;2023-06-22T08:17:59;8.70;;;5.55;;
39078;SDS011;24829;49.208;12.080;2023-06-22T08:20:25;7.85;;;5.72;;
39078;SDS011;24829;49.208;12.080;2023-06-22T08:22:52;8.40;;;5.60;;
39078;SDS011;24829;49.208;12.080;2023-06-22T08:25:18;6.45;;;5.13;;
39078;SDS011;24829;49.208;12.080;2023-06-22T08:27:45;11.65;;;5.38;;
39078;SDS011;24829;49.208;12.080;2023-06-22T08:30:12;11.55;;;5.35;;
39078;SDS011;24829;49.208;12.080;2023-06-22T08:32:37;9.50;;;5.13;;
39078;SDS011;24829;49.208;12.080;2023-06-22T08:35:03;10.13;;;4.30;;
39078;SDS011;24829;49.208;12.080;2023-06-22T08:37:30;11.00;;;5.05;;
39078;SDS011;24829;49.208;12.080;2023-06-22T08:39:57;10.27;;;5.05;;
39078;SDS011;24829;49.208;12.080;2023-06-22T08:42:24;9.15;;;5.07;;
39078;SDS011;24829;49.208;12.080;2023-06-22T08:44:50;11.13;;;5.38;;
39078;SDS011;24829;49.208;12.080;2023-06-22T08:47:16;8.57;;;5.22;;
39078;SDS011;24829;49.208;12.080;2023-06-22T08:49:42;9.55;;;4.75;;
39078;SDS011;24829;49.208;12.080;2023-06-22T08:52:07;7.50;;;4.68;;
39078;SDS011;24829;49.208;12.080;2023-06-22T08:54:33;9.43;;;5.43;;
39078;SDS011;24829;49.208;12.080;2023-06-22T08:57:00;9.88;;;5.43;;
39078;SDS011;24829;49.208;12.080;2023-06-22T08:59:26;7.15;;;4.93;;
39078;SDS011;24829;49.208;12.080;2023-06-22T09:01:52;10.23;;;4.93;;
39078;SDS011;24829;49.208;12.080;2023-06-22T09:04:17;7.32;;;5.15;;
39078;SDS011;24829;49.208;12.080;2023-06-22T09:06:43;11.93;;;5.28;;
39078;SDS011;24829;49.208;12.080;2023-06-22T09:09:12;5.90;;;4.05;;
39078;SDS011;24829;49.208;12.080;2023-06-22T09:11:39;7.75;;;4.90;;
39078;SDS011;24829;49.208;12.080;2023-06-22T09:14:04;9.88;;;4.70;;
39078;SDS011;24829;49.208;12.080;2023-06-22T09:16:30;12.65;;;4.97;;
39078;SDS011;24829;49.208;12.080;2023-06-22T09:18:55;10.80;;;4.70;;
39078;SDS011;24829;49.208;12.080;2023-06-22T09:21:21;10.63;;;4.88;;
39078;SDS011;24829;49.208;12.080;2023-06-22T09:23:47;13.35;;;5.25;;
39078;SDS011;24829;49.208;12.080;2023-06-22T09:26:16;13.82;;;4.82;;
39078;SDS011;24829;49.208;12.080;2023-06-22T09:28:44;7.47;;;5.10;;
39078;SDS011;24829;49.208;12.080;2023-06-22T09:31:10;7.57;;;5.18;;
39078;SDS011;24829;49.208;12.080;2023-06-22T09:33:36;7.72;;;5.28;;
39078;SDS011;24829;49.208;12.080;2023-06-22T09:36:05;11.93;;;5.55;;
39078;SDS011;24829;49.208;12.080;2023-06-22T09:38:32;7.40;;;4.50;;
39078;SDS011;24829;49.208;12.080;2023-06-22T09:41:00;14.07;;;5.97;;
39078;SDS011;24829;49.208;12.080;2023-06-22T09:43:25;10.10;;;4.80;;
39078;SDS011;24829;49.208;12.080;2023-06-22T09:45:51;10.00;;;5.50;;
39078;SDS011;24829;49.208;12.080;2023-06-22T09:48:17;7.13;;;4.55;;
39078;SDS011;24829;49.208;12.080;2023-06-22T09:50:42;12.23;;;5.45;;
39078;SDS011;24829;49.208;12.080;2023-06-22T09:53:08;7.80;;;4.45;;
39078;SDS011;24829;49.208;12.080;2023-06-22T09:55:33;11.10;;;4.85;;
39078;SDS011;24829;49.208;12.080;2023-06-22T09:57:59;9.20;;;4.32;;
39078;SDS011;24829;49.208;12.080;2023-06-22T10:00:24;9.73;;;4.80;;
39078;SDS011;24829;49.208;12.080;2023-06-22T10:02:51;10.32;;;5.00;;
39078;SDS011;24829;49.208;12.080;2023-06-22T10:05:17;9.55;;;5.32;;
39078;SDS011;24829;49.208;12.080;2023-06-22T10:07:43;7.95;;;4.95;;
39078;SDS011;24829;49.208;12.080;2023-06-22T10:10:09;8.57;;;4.60;;
39078;SDS011;24829;49.208;12.080;2023-06-22T10:12:36;9.43;;;5.00;;
39078;SDS011;24829;49.208;12.080;2023-06-22T10:15:02;9.88;;;5.15;;
39078;SDS011;24829;49.208;12.080;2023-06-22T10:17:28;6.88;;;4.22;;
39078;SDS011;24829;49.208;12.080;2023-06-22T10:19:53;6.60;;;4.05;;
39078;SDS011;24829;49.208;12.080;2023-06-22T10:22:19;8.68;;;5.05;;
39078;SDS011;24829;49.208;12.080;2023-06-22T10:24:44;7.85;;;5.18;;
39078;SDS011;24829;49.208;12.080;2023-06-22T10:27:11;7.68;;;4.50;;
39078;SDS011;24829;49.208;12.080;2023-06-22T10:29:37;8.93;;;4.63;;
39078;SDS011;24829;49.208;12.080;2023-06-22T10:32:03;6.82;;;4.85;;
39078;SDS011;24829;49.208;12.080;2023-06-22T10:34:28;9.40;;;5.25;;
39078;SDS011;24829;49.208;12.080;2023-06-22T10:36:54;12.80;;;5.25;;
39078;SDS011;24829;49.208;12.080;2023-06-22T10:39:20;7.60;;;5.32;;
39078;SDS011;24829;49.208;12.080;2023-06-22T10:41:45;9.73;;;5.25;;
39078;SDS011;24829;49.208;12.080;2023-06-22T10:44:11;8.20;;;5.07;;
39078;SDS011;24829;49.208;12.080;2023-06-22T10:46:37;9.20;;;5.00;;
39078;SDS011;24829;49.208;12.080;2023-06-22T10:49:03;9.18;;;4.88;;
39078;SDS011;24829;49.208;12.080;2023-06-22T10:51:28;8.50;;;5.13;;
39078;SDS011;24829;49.208;12.080;2023-06-22T10:53:56;5.43;;;3.92;;
39078;SDS011;24829;49.208;12.080;2023-06-22T10:56:21;9.73;;;5.45;;
39078;SDS011;24829;49.208;12.080;2023-06-22T10:58:47;12.18;;;4.93;;
39078;SDS011;24829;49.208;12.080;2023-06-22T11:01:12;11.45;;;5.63;;
39078;SDS011;24829;49.208;12.080;2023-06-22T11:03:38;8.75;;;4.47;;
39078;SDS011;24829;49.208;12.080;2023-06-22T11:06:03;9.63;;;5.60;;
39078;SDS011;24829;49.208;12.080;2023-06-22T11:08:29;6.20;;;4.45;;
39078;SDS011;24829;49.208;12.080;2023-06-22T11:10:55;12.32;;;4.60;;
39078;SDS011;24829;49.208;12.080;2023-06-22T11:13:20;7.30;;;4.20;;
39078;SDS011;24829;49.208;12.080;2023-06-22T11:15:46;9.10;;;4.60;;
39078;SDS011;24829;49.208;12.080;2023-06-22T11:18:11;10.32;;;5.22;;
39078;SDS011;24829;49.208;12.080;2023-06-22T11:20:37;11.25;;;4.72;;
39078;SDS011;24829;49.208;12.080;2023-06-22T11:23:06;11.15;;;4.57;;
39078;SDS011;24829;49.208;12.080;2023-06-22T11:25:33;11.73;;;5.20;;
39078;SDS011;24829;49.208;12.080;2023-06-22T11:28:03;11.27;;;4.78;;
39078;SDS011;24829;49.208;12.080;2023-06-22T11:30:29;6.10;;;4.93;;
39078;SDS011;24829;49.208;12.080;2023-06-22T11:32:56;9.68;;;4.82;;
39078;SDS011;24829;49.208;12.080;2023-06-22T11:35:23;8.73;;;5.07;;
39078;SDS011;24829;49.208;12.080;2023-06-22T11:37:48;12.55;;;4.40;;
39078;SDS011;24829;49.208;12.080;2023-06-22T11:40:14;14.38;;;4.88;;
39078;SDS011;24829;49.208;12.080;2023-06-22T11:42:40;10.93;;;4.28;;
39078;SDS011;24829;49.208;12.080;2023-06-22T11:45:07;8.73;;;4.15;;
39078;SDS011;24829;49.208;12.080;2023-06-22T11:47:33;12.65;;;4.75;;
39078;SDS011;24829;49.208;12.080;2023-06-22T11:49:58;14.52;;;4.85;;
39078;SDS011;24829;49.208;12.080;2023-06-22T11:52:24;9.07;;;4.47;;
39078;SDS011;24829;49.208;12.080;2023-06-22T11:54:49;7.82;;;5.13;;
39078;SDS011;24829;49.208;12.080;2023-06-22T11:57:15;9.77;;;4.25;;
39078;SDS011;24829;49.208;12.080;2023-06-22T11:59:41;18.10;;;5.57;;
39078;SDS011;24829;49.208;12.080;2023-06-22T12:02:07;11.75;;;5.55;;
39078;SDS011;24829;49.208;12.080;2023-06-22T12:04:34;8.70;;;5.10;;
39078;SDS011;24829;49.208;12.080;2023-06-22T12:06:59;7.75;;;4.90;;
39078;SDS011;24829;49.208;12.080;2023-06-22T12:09:25;12.48;;;5.05;;
39078;SDS011;24829;49.208;12.080;2023-06-22T12:11:50;8.68;;;4.93;;
39078;SDS011;24829;49.208;12.080;2023-06-22T12:14:16;11.30;;;4.35;;
39078;SDS011;24829;49.208;12.080;2023-06-22T12:16:42;18.63;;;5.07;;
39078;SDS011;24829;49.208;12.080;2023-06-22T12:19:09;17.85;;;4.90;;
39078;SDS011;24829;49.208;12.080;2023-06-22T12:21:35;9.70;;;4.80;;
39078;SDS011;24829;49.208;12.080;2023-06-22T12:24:02;12.32;;;5.20;;
39078;SDS011;24829;49.208;12.080;2023-06-22T12:26:28;12.48;;;5.35;;
39078;SDS011;24829;49.208;12.080;2023-06-22T12:28:54;11.07;;;4.75;;
39078;SDS011;24829;49.208;12.080;2023-06-22T12:31:19;13.20;;;5.00;;
39078;SDS011;24829;49.208;12.080;2023-06-22T12:33:45;11.38;;;4.57;;
39078;SDS011;24829;49.208;12.080;2023-06-22T12:36:10;13.27;;;5.15;;
39078;SDS011;24829;49.208;12.080;2023-06-22T12:38:36;11.88;;;4.97;;
39078;SDS011;24829;49.208;12.080;2023-06-22T12:41:01;12.20;;;4.57;;
39078;SDS011;24829;49.208;12.080;2023-06-22T12:43:27;13.70;;;5.30;;
39078;SDS011;24829;49.208;12.080;2023-06-22T12:45:53;11.82;;;5.03;;
39078;SDS011;24829;49.208;12.080;2023-06-22T12:48:18;8.38;;;4.53;;
39078;SDS011;24829;49.208;12.080;2023-06-22T12:50:44;10.45;;;4.57;;
39078;SDS011;24829;49.208;12.080;2023-06-22T12:53:10;17.55;;;5.38;;
39078;SDS011;24829;49.208;12.080;2023-06-22T12:55:35;9.00;;;5.13;;
39078;SDS011;24829;49.208;12.080;2023-06-22T12:58:01;6.20;;;4.20;;
39078;SDS011;24829;49.208;12.080;2023-06-22T13:00:26;10.82;;;5.15;;
39078;SDS011;24829;49.208;12.080;2023-06-22T13:02:52;12.43;;;5.30;;
39078;SDS011;24829;49.208;12.080;2023-06-22T13:05:18;11.07;;;5.35;;
39078;SDS011;24829;49.208;12.080;2023-06-22T13:07:44;16.13;;;6.45;;
39078;SDS011;24829;49.208;12.080;2023-06-22T13:10:10;8.90;;;5.03;;
39078;SDS011;24829;49.208;12.080;2023-06-22T13:12:36;12.07;;;5.45;;
39078;SDS011;24829;49.208;12.080;2023-06-22T13:15:01;12.98;;;5.82;;
39078;SDS011;24829;49.208;12.080;2023-06-22T13:17:28;13.60;;;6.03;;
39078;SDS011;24829;49.208;12.080;2023-06-22T13:19:53;14.65;;;7.18;;
39078;SDS011;24829;49.208;12.080;2023-06-22T13:22:26;14.70;;;6.40;;
39078;SDS011;24829;49.208;12.080;2023-06-22T13:24:56;11.80;;;5.00;;
39078;SDS011;24829;49.208;12.080;2023-06-22T13:27:22;12.55;;;4.40;;
39078;SDS011;24829;49.208;12.080;2023-06-22T13:29:48;11.70;;;5.32;;
39078;SDS011;24829;49.208;12.080;2023-06-22T13:32:14;13.85;;;4.88;;
39078;SDS011;24829;49.208;12.080;2023-06-22T13:34:39;15.93;;;5.22;;
39078;SDS011;24829;49.208;12.080;2023-06-22T13:37:05;14.40;;;5.78;;
39078;SDS011;24829;49.208;12.080;2023-06-22T13:39:30;12.57;;;4.75;;
39078;SDS011;24829;49.208;12.080;2023-06-22T13:45:18;11.38;;;5.28;;
39078;SDS011;24829;49.208;12.080;2023-06-22T13:47:44;12.15;;;4.75;;
39078;SDS011;24829;49.208;12.080;2023-06-22T13:50:10;23.50;;;5.70;;
39078;SDS011;24829;49.208;12.080;2023-06-22T13:52:37;12.25;;;5.50;;
39078;SDS011;24829;49.208;12.080;2023-06-22T13:55:04;20.30;;;6.40;;
39078;SDS011;24829;49.208;12.080;2023-06-22T13:57:30;12.50;;;5.45;;
39078;SDS011;24829;49.208;12.080;2023-06-22T13:59:56;12.52;;;6.00;;
39078;SDS011;24829;49.208;12.080;2023-06-22T14:02:21;10.68;;;5.72;;
39078;SDS011;24829;49.208;12.080;2023-06-22T14:04:47;13.23;;;5.18;;
39078;SDS011;24829;49.208;12.080;2023-06-22T14:07:12;11.65;;;5.55;;
39078;SDS011;24829;49.208;12.080;2023-06-22T14:09:38;10.30;;;5.00;;
39078;SDS011;24829;49.208;12.080;2023-06-22T14:12:04;11.95;;;5.32;;
39078;SDS011;24829;49.208;12.080;2023-06-22T14:14:31;13.68;;;5.65;;
39078;SDS011;24829;49.208;12.080;2023-06-22T14:16:58;16.58;;;5.40;;
39078;SDS011;24829;49.208;12.080;2023-06-22T14:19:23;11.95;;;5.25;;
39078;SDS011;24829;49.208;12.080;2023-06-22T14:21:49;11.77;;;5.68;;
39078;SDS011;24829;49.208;12.080;2023-06-22T14:24:15;17.77;;;5.75;;